sensor_id;sensor_type;location;lat;lon;timestamp;pressure;altitude;pressure_sealevel;temperature;humidity
11017;BME280;54687;50.800;6.772;2024-02-16T00:00:19;98894.69;;;-144.06;53.26
11017;BME280;54687;50.800;6.772;2024-02-16T00:02:45;98903.19;;;-144.06;53.26
11017;BME280;54687;50.800;6.772;2024-02-16T00:05:12;98920.13;;;-144.06;53.37
11017;BME280;54687;50.800;6.772;2024-02-16T00:07:40;98733.63;;;-144.06;53.36
11017;BME280;54687;50.800;6.772;2024-02-16T00:10:08;98903.19;;;-144.06;53.38
11017;BME280;54687;50.800;6.772;2024-02-16T00:12:36;98875.63;;;-144.06;53.44
11017;BME280;54687;50.800;6.772;2024-02-16T00:15:06;98879.84;;;-144.06;53.35
11017;BME280;54687;50.800;6.772;2024-02-16T00:17:33;98937.09;;;-144.06;53.56
11017;BME280;54687;50.800;6.772;2024-02-16T00:19:59;98907.41;;;-144.06;53.49
11017;BME280;54687;50.800;6.772;2024-02-16T00:22:26;98894.69;;;-144.06;53.54
11017;BME280;54687;50.800;6.772;2024-02-16T00:24:54;98905.28;;;-144.06;53.44
11017;BME280;54687;50.800;6.772;2024-02-16T00:27:20;98890.47;;;-144.06;53.38
11017;BME280;54687;50.800;6.772;2024-02-16T00:29:47;98924.38;;;-144.06;53.35
11017;BME280;54687;50.800;6.772;2024-02-16T00:32:14;98867.16;;;-144.06;53.39
11017;BME280;54687;50.800;6.772;2024-02-16T00:34:41;98890.47;;;-144.06;53.41
11017;BME280;54687;50.800;6.772;2024-02-16T00:37:08;98886.22;;;-144.06;53.44
11017;BME280;54687;50.800;6.772;2024-02-16T00:39:37;98848.06;;;-144.06;53.51
11017;BME280;54687;50.800;6.772;2024-02-16T00:42:07;98886.22;;;-144.06;53.46
11017;BME280;54687;50.800;6.772;2024-02-16T00:44:33;98901.06;;;-144.06;53.44
11017;BME280;54687;50.800;6.772;2024-02-16T00:47:00;98903.19;;;-144.06;53.39
11017;BME280;54687;50.800;6.772;2024-02-16T00:49:27;98860.78;;;-144.06;53.43
11017;BME280;54687;50.800;6.772;2024-02-16T00:51:53;98903.19;;;-144.06;53.46
11017;BME280;54687;50.800;6.772;2024-02-16T00:54:20;98903.19;;;-144.06;53.37
11017;BME280;54687;50.800;6.772;2024-02-16T00:56:47;98854.44;;;-144.06;53.21
11017;BME280;54687;50.800;6.772;2024-02-16T00:59:15;98860.78;;;-144.06;53.32
11017;BME280;54687;50.800;6.772;2024-02-16T01:01:41;98818.41;;;-144.06;53.10
11017;BME280;54687;50.800;6.772;2024-02-16T01:04:08;98860.78;;;-144.06;52.98
11017;BME280;54687;50.800;6.772;2024-02-16T01:06:35;98869.25;;;-144.06;53.24
11017;BME280;54687;50.800;6.772;2024-02-16T01:09:01;98873.50;;;-144.06;53.22
11017;BME280;54687;50.800;6.772;2024-02-16T01:11:29;98852.31;;;-144.06;53.11
11017;BME280;54687;50.800;6.772;2024-02-16T01:13:55;98843.84;;;-144.06;53.12
11017;BME280;54687;50.800;6.772;2024-02-16T01:16:23;98873.50;;;-144.06;53.37
11017;BME280;54687;50.800;6.772;2024-02-16T01:18:50;98879.84;;;-144.06;53.45
11017;BME280;54687;50.800;6.772;2024-02-16T01:21:17;98829.00;;;-144.06;53.70
11017;BME280;54687;50.800;6.772;2024-02-16T01:23:46;98890.47;;;-144.06;53.89
11017;BME280;54687;50.800;6.772;2024-02-16T01:26:13;98848.06;;;-144.06;54.21
11017;BME280;54687;50.800;6.772;2024-02-16T01:28:42;98805.69;;;-144.06;54.39
11017;BME280;54687;50.800;6.772;2024-02-16T01:31:09;98894.69;;;-144.06;55.01
11017;BME280;54687;50.800;6.772;2024-02-16T01:33:38;98881.97;;;-144.06;55.31
11017;BME280;54687;50.800;6.772;2024-02-16T01:36:06;98869.25;;;-144.06;55.59
11017;BME280;54687;50.800;6.772;2024-02-16T01:38:33;98898.94;;;-144.06;55.84
11017;BME280;54687;50.800;6.772;2024-02-16T01:41:00;98901.06;;;-144.06;55.86
11017;BME280;54687;50.800;6.772;2024-02-16T01:43:28;98898.94;;;-144.06;56.21
11017;BME280;54687;50.800;6.772;2024-02-16T01:45:56;98920.13;;;-144.06;56.19
11017;BME280;54687;50.800;6.772;2024-02-16T01:48:25;98920.13;;;-144.06;56.37
11017;BME280;54687;50.800;6.772;2024-02-16T01:50:54;98937.09;;;-144.06;56.30
11017;BME280;54687;50.800;6.772;2024-02-16T01:53:23;98924.38;;;-144.06;56.26
11017;BME280;54687;50.800;6.772;2024-02-16T01:55:50;98898.94;;;-144.06;56.29
11017;BME280;54687;50.800;6.772;2024-02-16T01:58:17;98947.69;;;-144.06;56.21
11017;BME280;54687;50.800;6.772;2024-02-16T02:00:44;98922.25;;;-144.06;56.39
11017;BME280;54687;50.800;6.772;2024-02-16T02:03:12;98928.59;;;-144.06;56.43
11017;BME280;54687;50.800;6.772;2024-02-16T02:05:45;98898.94;;;-144.06;56.17
11017;BME280;54687;50.800;6.772;2024-02-16T02:08:15;98937.09;;;-144.06;56.57
11017;BME280;54687;50.800;6.772;2024-02-16T02:10:43;98886.22;;;-144.06;56.47
11017;BME280;54687;50.800;6.772;2024-02-16T02:13:10;98905.28;;;-144.06;56.53
11017;BME280;54687;50.800;6.772;2024-02-16T02:15:37;98918.00;;;-144.06;56.70
11017;BME280;54687;50.800;6.772;2024-02-16T02:18:03;98922.25;;;-144.06;56.68
11017;BME280;54687;50.800;6.772;2024-02-16T02:20:30;98915.88;;;-144.06;56.85
11017;BME280;54687;50.800;6.772;2024-02-16T02:22:58;98898.94;;;-144.06;56.81
11017;BME280;54687;50.800;6.772;2024-02-16T02:25:24;98898.94;;;-144.06;57.13
11017;BME280;54687;50.800;6.772;2024-02-16T02:27:52;98941.31;;;-144.06;57.10
11017;BME280;54687;50.800;6.772;2024-02-16T02:30:19;98945.56;;;-144.06;57.21
11017;BME280;54687;50.800;6.772;2024-02-16T02:32:46;98937.09;;;-144.06;57.24
11017;BME280;54687;50.800;6.772;2024-02-16T02:35:15;98932.84;;;-144.06;57.30
11017;BME280;54687;50.800;6.772;2024-02-16T02:37:41;98930.72;;;-144.06;57.27
11017;BME280;54687;50.800;6.772;2024-02-16T02:40:10;98907.41;;;-144.06;57.33
11017;BME280;54687;50.800;6.772;2024-02-16T02:42:37;98924.38;;;-144.06;57.14
11017;BME280;54687;50.800;6.772;2024-02-16T02:45:05;98951.91;;;-144.06;57.35
11017;BME280;54687;50.800;6.772;2024-02-16T02:47:32;98928.59;;;-144.06;57.36
11017;BME280;54687;50.800;6.772;2024-02-16T02:49:59;98937.09;;;-144.06;57.44
11017;BME280;54687;50.800;6.772;2024-02-16T02:52:25;98924.38;;;-144.06;57.46
11017;BME280;54687;50.800;6.772;2024-02-16T02:54:52;98956.16;;;-144.06;57.38
11017;BME280;54687;50.800;6.772;2024-02-16T02:57:20;98949.81;;;-144.06;57.44
11017;BME280;54687;50.800;6.772;2024-02-16T02:59:47;98958.28;;;-144.06;57.42
11017;BME280;54687;50.800;6.772;2024-02-16T03:02:13;98945.56;;;-144.06;57.49
11017;BME280;54687;50.800;6.772;2024-02-16T03:04:40;98903.19;;;-144.06;57.47
11017;BME280;54687;50.800;6.772;2024-02-16T03:07:07;98907.41;;;-144.06;57.68
11017;BME280;54687;50.800;6.772;2024-02-16T03:09:33;98979.47;;;-144.06;57.78
11017;BME280;54687;50.800;6.772;2024-02-16T03:12:00;98954.03;;;-144.06;57.70
11017;BME280;54687;50.800;6.772;2024-02-16T03:14:28;98937.09;;;-144.06;57.80
11017;BME280;54687;50.800;6.772;2024-02-16T03:16:55;98886.22;;;-144.06;57.80
11017;BME280;54687;50.800;6.772;2024-02-16T03:19:22;98951.91;;;-144.06;58.03
11017;BME280;54687;50.800;6.772;2024-02-16T03:21:48;98951.91;;;-144.06;58.11
11017;BME280;54687;50.800;6.772;2024-02-16T03:24:15;98939.19;;;-144.06;58.15
11017;BME280;54687;50.800;6.772;2024-02-16T03:26:42;98947.69;;;-144.06;58.10
11017;BME280;54687;50.800;6.772;2024-02-16T03:29:08;98926.50;;;-144.06;58.29
11017;BME280;54687;50.800;6.772;2024-02-16T03:31:36;98945.56;;;-144.06;58.15
11017;BME280;54687;50.800;6.772;2024-02-16T03:34:03;98937.09;;;-144.06;58.35
11017;BME280;54687;50.800;6.772;2024-02-16T03:36:29;98932.84;;;-144.06;58.38
11017;BME280;54687;50.800;6.772;2024-02-16T03:38:57;98949.81;;;-144.06;58.41
11017;BME280;54687;50.800;6.772;2024-02-16T03:41:23;98932.84;;;-144.06;58.44
11017;BME280;54687;50.800;6.772;2024-02-16T03:43:50;98941.31;;;-144.06;58.44
11017;BME280;54687;50.800;6.772;2024-02-16T03:46:18;98966.75;;;-144.06;58.37
11017;BME280;54687;50.800;6.772;2024-02-16T03:48:46;98966.75;;;-144.06;58.36
11017;BME280;54687;50.800;6.772;2024-02-16T03:51:13;98979.47;;;-144.06;58.52
11017;BME280;54687;50.800;6.772;2024-02-16T03:53:39;98911.66;;;-144.06;58.50
11017;BME280;54687;50.800;6.772;2024-02-16T03:56:06;98949.81;;;-144.06;58.61
11017;BME280;54687;50.800;6.772;2024-02-16T03:58:33;98951.91;;;-144.06;58.69
11017;BME280;54687;50.800;6.772;2024-02-16T04:00:59;98954.03;;;-144.06;58.64
11017;BME280;54687;50.800;6.772;2024-02-16T04:03:26;98958.28;;;-144.06;58.83
11017;BME280;54687;50.800;6.772;2024-02-16T04:05:54;98973.13;;;-144.06;58.83
11017;BME280;54687;50.800;6.772;2024-02-16T04:08:20;98907.41;;;-144.06;58.92
11017;BME280;54687;50.800;6.772;2024-02-16T04:10:47;98949.81;;;-144.06;59.01
11017;BME280;54687;50.800;6.772;2024-02-16T04:13:14;98949.81;;;-144.06;58.94
11017;BME280;54687;50.800;6.772;2024-02-16T04:15:40;98966.75;;;-144.06;58.91
11017;BME280;54687;50.800;6.772;2024-02-16T04:18:07;98934.97;;;-144.06;58.89
11017;BME280;54687;50.800;6.772;2024-02-16T04:20:34;98924.38;;;-144.06;58.87
11017;BME280;54687;50.800;6.772;2024-02-16T04:23:02;98926.50;;;-144.06;58.90
11017;BME280;54687;50.800;6.772;2024-02-16T04:25:29;98941.31;;;-144.06;58.86
11017;BME280;54687;50.800;6.772;2024-02-16T04:27:56;98954.03;;;-144.06;58.80
11017;BME280;54687;50.800;6.772;2024-02-16T04:30:22;98924.38;;;-144.06;58.74
11017;BME280;54687;50.800;6.772;2024-02-16T04:32:49;98975.22;;;-144.06;58.98
11017;BME280;54687;50.800;6.772;2024-02-16T04:35:15;98971.00;;;-144.06;58.84
11017;BME280;54687;50.800;6.772;2024-02-16T04:37:42;98968.88;;;-144.06;58.83
11017;BME280;54687;50.800;6.772;2024-02-16T04:40:11;98939.19;;;-144.06;58.91
11017;BME280;54687;50.800;6.772;2024-02-16T04:42:38;98949.81;;;-144.06;58.88
11017;BME280;54687;50.800;6.772;2024-02-16T04:45:06;98954.03;;;-144.06;58.90
11017;BME280;54687;50.800;6.772;2024-02-16T04:47:33;98962.53;;;-144.06;58.81
11017;BME280;54687;50.800;6.772;2024-02-16T04:50:00;98941.31;;;-144.06;58.81
11017;BME280;54687;50.800;6.772;2024-02-16T04:52:27;98780.25;;;-144.06;58.88
11017;BME280;54687;50.800;6.772;2024-02-16T04:54:53;98920.13;;;-144.06;58.96
11017;BME280;54687;50.800;6.772;2024-02-16T04:57:21;98973.13;;;-144.06;58.86
11017;BME280;54687;50.800;6.772;2024-02-16T04:59:48;98945.56;;;-144.06;58.87
11017;BME280;54687;50.800;6.772;2024-02-16T05:02:15;98968.88;;;-144.06;58.92
11017;BME280;54687;50.800;6.772;2024-02-16T05:04:41;98987.94;;;-144.06;59.05
11017;BME280;54687;50.800;6.772;2024-02-16T05:07:09;98998.53;;;-144.06;59.11
11017;BME280;54687;50.800;6.772;2024-02-16T05:09:35;98983.72;;;-144.06;59.14
11017;BME280;54687;50.800;6.772;2024-02-16T05:12:02;98971.00;;;-144.06;59.06
11017;BME280;54687;50.800;6.772;2024-02-16T05:14:30;98971.00;;;-144.06;59.03
11017;BME280;54687;50.800;6.772;2024-02-16T05:16:57;98954.03;;;-144.06;58.94
11017;BME280;54687;50.800;6.772;2024-02-16T05:19:23;98954.03;;;-144.06;58.79
11017;BME280;54687;50.800;6.772;2024-02-16T05:21:50;98992.19;;;-144.06;58.83
11017;BME280;54687;50.800;6.772;2024-02-16T05:24:16;98971.00;;;-144.06;58.81
11017;BME280;54687;50.800;6.772;2024-02-16T05:26:43;98968.88;;;-144.06;58.75
11017;BME280;54687;50.800;6.772;2024-02-16T05:29:10;98949.81;;;-144.06;58.78
11017;BME280;54687;50.800;6.772;2024-02-16T05:31:38;98941.31;;;-144.06;58.74
11017;BME280;54687;50.800;6.772;2024-02-16T05:34:05;98932.84;;;-144.06;58.78
11017;BME280;54687;50.800;6.772;2024-02-16T05:36:32;98937.09;;;-144.06;58.74
11017;BME280;54687;50.800;6.772;2024-02-16T05:39:01;98954.03;;;-144.06;58.70
11017;BME280;54687;50.800;6.772;2024-02-16T05:41:45;98958.28;;;-144.06;58.70
11017;BME280;54687;50.800;6.772;2024-02-16T05:44:12;98960.41;;;-144.06;58.71
11017;BME280;54687;50.800;6.772;2024-02-16T05:46:40;98947.69;;;-144.06;58.74
11017;BME280;54687;50.800;6.772;2024-02-16T05:49:06;98971.00;;;-144.06;58.71
11017;BME280;54687;50.800;6.772;2024-02-16T05:51:35;98987.94;;;-144.06;58.65
11017;BME280;54687;50.800;6.772;2024-02-16T05:54:02;98945.56;;;-144.06;58.62
11017;BME280;54687;50.800;6.772;2024-02-16T05:56:28;98996.44;;;-144.06;58.51
11017;BME280;54687;50.800;6.772;2024-02-16T05:58:55;98977.34;;;-144.06;58.54
11017;BME280;54687;50.800;6.772;2024-02-16T06:01:22;99038.81;;;-144.06;58.54
11017;BME280;54687;50.800;6.772;2024-02-16T06:03:50;99034.59;;;-144.06;58.45
11017;BME280;54687;50.800;6.772;2024-02-16T06:06:16;98979.47;;;-144.06;58.47
11017;BME280;54687;50.800;6.772;2024-02-16T06:08:43;98954.03;;;-144.06;58.51
11017;BME280;54687;50.800;6.772;2024-02-16T06:11:09;98994.31;;;-144.06;58.50
11017;BME280;54687;50.800;6.772;2024-02-16T06:13:36;98962.53;;;-144.06;58.50
11017;BME280;54687;50.800;6.772;2024-02-16T06:16:04;99000.66;;;-144.06;58.40
11017;BME280;54687;50.800;6.772;2024-02-16T06:18:33;99013.38;;;-144.06;58.43
11017;BME280;54687;50.800;6.772;2024-02-16T06:21:01;98994.31;;;-144.06;58.48
11017;BME280;54687;50.800;6.772;2024-02-16T06:23:28;98996.44;;;-144.06;58.39
11017;BME280;54687;50.800;6.772;2024-02-16T06:25:55;99017.63;;;-144.06;58.35
11017;BME280;54687;50.800;6.772;2024-02-16T06:28:21;99002.78;;;-144.06;58.30
11017;BME280;54687;50.800;6.772;2024-02-16T06:30:48;98973.13;;;-144.06;58.25
11017;BME280;54687;50.800;6.772;2024-02-16T06:33:15;98949.81;;;-144.06;58.21
11017;BME280;54687;50.800;6.772;2024-02-16T06:35:41;98990.06;;;-144.06;58.22
11017;BME280;54687;50.800;6.772;2024-02-16T06:38:09;98992.19;;;-144.06;58.26
11017;BME280;54687;50.800;6.772;2024-02-16T06:40:35;99017.63;;;-144.06;58.18
11017;BME280;54687;50.800;6.772;2024-02-16T06:43:03;98977.34;;;-144.06;58.17
11017;BME280;54687;50.800;6.772;2024-02-16T06:45:31;98973.13;;;-144.06;58.21
11017;BME280;54687;50.800;6.772;2024-02-16T06:47:57;98954.03;;;-144.06;58.00
11017;BME280;54687;50.800;6.772;2024-02-16T06:50:24;98975.22;;;-144.06;58.08
11017;BME280;54687;50.800;6.772;2024-02-16T06:52:50;99000.66;;;-144.06;57.86
11017;BME280;54687;50.800;6.772;2024-02-16T06:55:18;98979.47;;;-144.06;57.88
11017;BME280;54687;50.800;6.772;2024-02-16T06:57:45;98998.53;;;-144.06;57.76
11017;BME280;54687;50.800;6.772;2024-02-16T07:00:12;98987.94;;;-144.06;57.71
11017;BME280;54687;50.800;6.772;2024-02-16T07:02:40;98947.69;;;-144.06;57.72
11017;BME280;54687;50.800;6.772;2024-02-16T07:05:08;98915.88;;;-144.06;57.58
11017;BME280;54687;50.800;6.772;2024-02-16T07:07:34;98962.53;;;-144.06;57.56
11017;BME280;54687;50.800;6.772;2024-02-16T07:10:01;99004.91;;;-144.06;57.56
11017;BME280;54687;50.800;6.772;2024-02-16T07:12:29;98954.03;;;-144.06;57.37
11017;BME280;54687;50.800;6.772;2024-02-16T07:14:56;98956.16;;;-144.06;57.37
11017;BME280;54687;50.800;6.772;2024-02-16T07:17:22;98949.81;;;-144.06;57.19
11017;BME280;54687;50.800;6.772;2024-02-16T07:19:49;98941.31;;;-144.06;57.10
11017;BME280;54687;50.800;6.772;2024-02-16T07:22:16;98945.56;;;-144.06;56.94
11017;BME280;54687;50.800;6.772;2024-02-16T07:24:42;98958.28;;;-144.06;56.73
11017;BME280;54687;50.800;6.772;2024-02-16T07:27:09;98920.13;;;-144.06;56.70
11017;BME280;54687;50.800;6.772;2024-02-16T07:29:37;98945.56;;;-144.06;56.71
11017;BME280;54687;50.800;6.772;2024-02-16T07:32:04;98907.41;;;-144.06;56.63
11017;BME280;54687;50.800;6.772;2024-02-16T07:34:31;98924.38;;;-144.06;56.53
11017;BME280;54687;50.800;6.772;2024-02-16T07:36:58;98896.81;;;-144.06;56.39
11017;BME280;54687;50.800;6.772;2024-02-16T07:39:24;98907.41;;;-144.06;56.32
11017;BME280;54687;50.800;6.772;2024-02-16T07:41:51;98911.66;;;-144.06;56.26
11017;BME280;54687;50.800;6.772;2024-02-16T07:44:18;98886.22;;;-144.06;56.13
11017;BME280;54687;50.800;6.772;2024-02-16T07:46:45;98888.34;;;-144.06;56.02
11017;BME280;54687;50.800;6.772;2024-02-16T07:49:13;98886.22;;;-144.06;56.00
11017;BME280;54687;50.800;6.772;2024-02-16T07:51:39;98886.22;;;-144.06;55.99
11017;BME280;54687;50.800;6.772;2024-02-16T07:54:13;98812.03;;;-144.06;55.94
11017;BME280;54687;50.800;6.772;2024-02-16T07:56:47;98856.53;;;-144.06;56.06
11017;BME280;54687;50.800;6.772;2024-02-16T07:59:14;98881.97;;;-144.06;56.20
11017;BME280;54687;50.800;6.772;2024-02-16T08:01:54;98843.84;;;-144.06;56.04
11017;BME280;54687;50.800;6.772;2024-02-16T08:04:22;98809.91;;;-144.06;56.07
11017;BME280;54687;50.800;6.772;2024-02-16T08:06:52;98850.19;;;-144.06;56.24
11017;BME280;54687;50.800;6.772;2024-02-16T08:09:28;98814.16;;;-144.06;55.78
11017;BME280;54687;50.800;6.772;2024-02-16T08:12:02;98805.69;;;-144.06;55.67
11017;BME280;54687;50.800;6.772;2024-02-16T08:14:36;98790.84;;;-144.06;55.84
11017;BME280;54687;50.800;6.772;2024-02-16T08:17:12;98822.63;;;-144.06;55.83
11017;BME280;54687;50.800;6.772;2024-02-16T08:19:43;98822.63;;;-144.06;55.83
11017;BME280;54687;50.800;6.772;2024-02-16T08:22:11;98788.72;;;-144.06;56.03
11017;BME280;54687;50.800;6.772;2024-02-16T08:24:48;98795.09;;;-144.06;56.02
11017;BME280;54687;50.800;6.772;2024-02-16T08:27:21;98748.47;;;-144.06;56.04
11017;BME280;54687;50.800;6.772;2024-02-16T08:30:12;98765.41;;;-144.06;56.10
11017;BME280;54687;50.800;6.772;2024-02-16T08:32:41;98759.06;;;-144.06;56.10
11017;BME280;54687;50.800;6.772;2024-02-16T08:35:12;98756.94;;;-144.06;55.94
11017;BME280;54687;50.800;6.772;2024-02-16T08:37:51;98771.78;;;-144.06;55.83
11017;BME280;54687;50.800;6.772;2024-02-16T08:40:25;98746.34;;;-144.06;55.81
11017;BME280;54687;50.800;6.772;2024-02-16T08:43:05;98665.81;;;-144.06;55.92
11017;BME280;54687;50.800;6.772;2024-02-16T08:45:42;98737.88;;;-144.06;55.75
11017;BME280;54687;50.800;6.772;2024-02-16T08:52:08;98729.38;;;-144.06;55.74
11017;BME280;54687;50.800;6.772;2024-02-16T08:55:17;98725.16;;;-144.06;55.73
11017;BME280;54687;50.800;6.772;2024-02-16T08:58:02;98699.72;;;-144.06;55.69
11017;BME280;54687;50.800;6.772;2024-02-16T09:00:33;98678.53;;;-144.06;55.62
11017;BME280;54687;50.800;6.772;2024-02-16T09:03:06;98665.81;;;-144.06;55.47
11017;BME280;54687;50.800;6.772;2024-02-16T09:06:03;98697.59;;;-144.06;55.33
11017;BME280;54687;50.800;6.772;2024-02-16T09:12:34;98693.34;;;-144.06;55.14
11017;BME280;54687;50.800;6.772;2024-02-16T09:15:05;98661.56;;;-144.06;55.20
11017;BME280;54687;50.800;6.772;2024-02-16T09:17:38;98682.75;;;-144.06;55.21
11017;BME280;54687;50.800;6.772;2024-02-16T09:20:10;98667.94;;;-144.06;55.16
11017;BME280;54687;50.800;6.772;2024-02-16T09:22:57;98674.28;;;-144.06;55.20
11017;BME280;54687;50.800;6.772;2024-02-16T09:25:28;98670.03;;;-144.06;55.23
11017;BME280;54687;50.800;6.772;2024-02-16T09:27:55;98631.91;;;-144.06;55.09
11017;BME280;54687;50.800;6.772;2024-02-16T09:30:22;98648.84;;;-144.06;54.87
11017;BME280;54687;50.800;6.772;2024-02-16T09:32:56;98657.34;;;-144.06;54.70
11017;BME280;54687;50.800;6.772;2024-02-16T09:35:29;98638.25;;;-144.06;54.79
11017;BME280;54687;50.800;6.772;2024-02-16T09:37:57;98576.78;;;-144.06;54.73
11017;BME280;54687;50.800;6.772;2024-02-16T09:40:28;98606.47;;;-144.06;54.74
11017;BME280;54687;50.800;6.772;2024-02-16T09:45:58;98583.16;;;-144.06;54.83
11017;BME280;54687;50.800;6.772;2024-02-16T09:48:27;98581.03;;;-144.06;54.62
11017;BME280;54687;50.800;6.772;2024-02-16T09:50:57;98610.72;;;-144.06;54.77
11017;BME280;54687;50.800;6.772;2024-02-16T09:53:31;98623.41;;;-144.06;54.65
11017;BME280;54687;50.800;6.772;2024-02-16T09:56:06;98627.66;;;-144.06;54.72
11017;BME280;54687;50.800;6.772;2024-02-16T09:58:35;98606.47;;;-144.06;54.91
11017;BME280;54687;50.800;6.772;2024-02-16T10:01:03;98642.50;;;-144.06;54.86
11017;BME280;54687;50.800;6.772;2024-02-16T10:03:43;98640.38;;;-144.06;54.88
11017;BME280;54687;50.800;6.772;2024-02-16T10:06:11;98634.03;;;-144.06;54.97
11017;BME280;54687;50.800;6.772;2024-02-16T10:08:49;98619.19;;;-144.06;54.90
11017;BME280;54687;50.800;6.772;2024-02-16T10:11:19;98600.09;;;-144.06;55.08
11017;BME280;54687;50.800;6.772;2024-02-16T10:14:00;98642.50;;;-144.06;54.79
11017;BME280;54687;50.800;6.772;2024-02-16T10:16:31;98653.09;;;-144.06;55.05
11017;BME280;54687;50.800;6.772;2024-02-16T10:19:04;98642.50;;;-144.06;55.08
11017;BME280;54687;50.800;6.772;2024-02-16T10:21:32;98593.75;;;-144.06;55.23
11017;BME280;54687;50.800;6.772;2024-02-16T10:24:00;98670.03;;;-144.06;55.15
11017;BME280;54687;50.800;6.772;2024-02-16T10:26:32;98606.47;;;-144.06;55.43
11017;BME280;54687;50.800;6.772;2024-02-16T10:29:03;98657.34;;;-144.06;55.50
11017;BME280;54687;50.800;6.772;2024-02-16T10:31:31;98604.34;;;-144.06;55.50
11017;BME280;54687;50.800;6.772;2024-02-16T10:33:59;98642.50;;;-144.06;55.57
11017;BME280;54687;50.800;6.772;2024-02-16T10:36:27;98661.56;;;-144.06;55.77
11017;BME280;54687;50.800;6.772;2024-02-16T10:38:55;99221.09;;;-144.06;55.83
11017;BME280;54687;50.800;6.772;2024-02-16T10:41:26;98659.44;;;-144.06;55.97
11017;BME280;54687;50.800;6.772;2024-02-16T10:43:56;98653.09;;;-144.06;56.11
11017;BME280;54687;50.800;6.772;2024-02-16T10:46:23;98657.34;;;-144.06;56.33
11017;BME280;54687;50.800;6.772;2024-02-16T10:48:50;98631.91;;;-144.06;56.48
11017;BME280;54687;50.800;6.772;2024-02-16T10:51:20;98460.25;;;-144.06;56.27
11017;BME280;54687;50.800;6.772;2024-02-16T10:53:48;98650.97;;;-144.06;56.41
11017;BME280;54687;50.800;6.772;2024-02-16T10:56:26;98636.13;;;-144.06;56.55
11017;BME280;54687;50.800;6.772;2024-02-16T10:58:53;98551.38;;;-144.06;56.45
11017;BME280;54687;50.800;6.772;2024-02-16T11:01:23;98627.66;;;-144.06;56.55
11017;BME280;54687;50.800;6.772;2024-02-16T11:03:49;98636.13;;;-144.06;56.50
11017;BME280;54687;50.800;6.772;2024-02-16T11:06:26;98625.53;;;-144.06;56.33
11017;BME280;54687;50.800;6.772;2024-02-16T11:08:53;98614.94;;;-144.06;56.29
11017;BME280;54687;50.800;6.772;2024-02-16T11:11:23;98621.31;;;-144.06;56.21
11017;BME280;54687;50.800;6.772;2024-02-16T11:13:54;98610.72;;;-144.06;56.19
11017;BME280;54687;50.800;6.772;2024-02-16T11:16:23;98614.94;;;-144.06;55.86
11017;BME280;54687;50.800;6.772;2024-02-16T11:18:50;98600.09;;;-144.06;55.57
11017;BME280;54687;50.800;6.772;2024-02-16T11:21:17;98614.94;;;-144.06;55.61
11017;BME280;54687;50.800;6.772;2024-02-16T11:23:44;98657.34;;;-144.06;55.55
11017;BME280;54687;50.800;6.772;2024-02-16T11:26:12;98602.22;;;-144.06;55.31
11017;BME280;54687;50.800;6.772;2024-02-16T11:28:41;98513.22;;;-144.06;55.04
11017;BME280;54687;50.800;6.772;2024-02-16T11:31:08;98576.78;;;-144.06;55.08
11017;BME280;54687;50.800;6.772;2024-02-16T11:33:43;98515.34;;;-144.06;55.00
11017;BME280;54687;50.800;6.772;2024-02-16T11:36:10;98585.28;;;-144.06;54.81
11017;BME280;54687;50.800;6.772;2024-02-16T11:38:37;98564.09;;;-144.06;54.77
11017;BME280;54687;50.800;6.772;2024-02-16T11:41:05;98525.94;;;-144.06;54.75
11017;BME280;54687;50.800;6.772;2024-02-16T11:43:33;98538.66;;;-144.06;54.84
11017;BME280;54687;50.800;6.772;2024-02-16T11:46:10;98513.22;;;-144.06;54.77
11017;BME280;54687;50.800;6.772;2024-02-16T11:48:38;98523.81;;;-144.06;55.16
11017;BME280;54687;50.800;6.772;2024-02-16T11:51:06;98489.91;;;-144.06;55.47
11017;BME280;54687;50.800;6.772;2024-02-16T11:53:33;98564.09;;;-144.06;56.41
11017;BME280;54687;50.800;6.772;2024-02-16T11:55:59;98513.22;;;-144.06;56.20
11017;BME280;54687;50.800;6.772;2024-02-16T11:58:26;98542.88;;;-144.06;56.24
11017;BME280;54687;50.800;6.772;2024-02-16T12:00:54;98564.09;;;-144.06;56.30
11017;BME280;54687;50.800;6.772;2024-02-16T12:03:23;98441.16;;;-144.06;56.55
11017;BME280;54687;50.800;6.772;2024-02-16T12:05:52;99208.38;;;-144.06;56.41
11017;BME280;54687;50.800;6.772;2024-02-16T12:08:18;98530.19;;;-144.06;56.48
11017;BME280;54687;50.800;6.772;2024-02-16T12:10:46;98547.13;;;-144.06;56.57
11017;BME280;54687;50.800;6.772;2024-02-16T12:13:13;98557.72;;;-144.06;56.85
11017;BME280;54687;50.800;6.772;2024-02-16T12:15:40;98578.91;;;-144.06;56.78
11017;BME280;54687;50.800;6.772;2024-02-16T12:18:06;98564.09;;;-144.06;56.95
11017;BME280;54687;50.800;6.772;2024-02-16T12:20:33;98559.84;;;-144.06;56.83
11017;BME280;54687;50.800;6.772;2024-02-16T12:23:11;98585.28;;;-144.06;57.04
11017;BME280;54687;50.800;6.772;2024-02-16T12:25:38;98631.91;;;-144.06;57.17
11017;BME280;54687;50.800;6.772;2024-02-16T12:28:05;98619.19;;;-144.06;56.85
11017;BME280;54687;50.800;6.772;2024-02-16T12:30:33;98614.94;;;-144.06;56.93
11017;BME280;54687;50.800;6.772;2024-02-16T12:32:59;98627.66;;;-144.06;56.78
11017;BME280;54687;50.800;6.772;2024-02-16T12:35:26;98595.88;;;-144.06;56.59
11017;BME280;54687;50.800;6.772;2024-02-16T12:37:53;98602.22;;;-144.06;56.65
11017;BME280;54687;50.800;6.772;2024-02-16T12:40:20;98576.78;;;-144.06;56.60
11017;BME280;54687;50.800;6.772;2024-02-16T12:42:47;98559.84;;;-144.06;56.49
11017;BME280;54687;50.800;6.772;2024-02-16T12:45:14;98411.50;;;-144.06;56.61
11017;BME280;54687;50.800;6.772;2024-02-16T12:47:42;98606.47;;;-144.06;56.69
11017;BME280;54687;50.800;6.772;2024-02-16T12:50:08;98621.31;;;-144.06;56.95
11017;BME280;54687;50.800;6.772;2024-02-16T12:52:35;98566.19;;;-144.06;57.71
11017;BME280;54687;50.800;6.772;2024-02-16T12:55:05;98617.06;;;-144.06;58.27
11017;BME280;54687;50.800;6.772;2024-02-16T12:57:33;98587.41;;;-144.06;58.72